EDHLLYBE

Guest
Details From EDHL - Lubeck Blankensee
To LYBE - Belgrade
Flight Number -
Tags Generated
Created
Modified
Stats Distance 656 nm / 1,214 km
Max Altitude 0 ft / 0 m
Waypoints 5
Social Downloads 0
Likes 0
Share VATSIM

Download

Looking for another format? Having issues loading an existing format? Contact us
Advertisement - Login to hide

Notes

Generated

Route

EDHL DC042 NUBRA R2333 LYBE

ID Type Via Altitude Latitude Longitude Leg Dist Tot Dist Heading (true) Name
O EDHL APT - 0 ft / 0 m 53.80205˚ 10.70189˚ - 0 nm - -
DC042 FIX - 0 ft / 0 m 51.16198˚ 13.98561˚ 198 nm 198 nm 142° / 144° -
NUBRA FIX - 0 ft / 0 m 47.86667˚ 17.50000˚ 240 nm 439 nm 144° / 147° -
R2333 FIX - 0 ft / 0 m 44.82652˚ 20.29097˚ 216 nm 655 nm 147° / 149° -
O LYBE APT - 0 ft / 0 m 44.82652˚ 20.29097˚ 0 nm 655 nm 0° / 180° -

Altitude Profile

Advertisement - Login to hide

Weather


0- 5 10 15 20 25 30 35+ Temperature / ° C

Clouds and Precipitation
Forecast for 2017-12-15 18:00 UTC. Updated 2 hours ago

Ground ~20,000 ft ~40,000 ft Winds

EDHL

Details ICAO EDHL (LBC)
Name Lubeck Blankensee
Region Germany - Civil
Timezone Europe/Berlin (UTC+1.0)
Stats Elevation 53 ft / 16 m (AMSL)
Location 53.804963° 10.717059°
Runways 1
Magnetic Variation 3.022° E

METAR

EDHL 151420Z 26006KT 9999 BKN011 03/02 Q0996

Decode

TAF

Not found

Departure Runways

ID Width Length Bearing (true) Bearing (mag) Surface Threshold Offset Overrun Length
07 197 ft / 60 m 6,877 ft / 2,096 m 71.96° 68.94° Asphalt 984 ft / 300 m 0 ft / 0 m
25 197 ft / 60 m 6,877 ft / 2,096 m 251.98° 248.96° Asphalt 0 ft / 0 m 0 ft / 0 m

LYBE

Details ICAO LYBE (BEG)
Name Belgrade
Region Serbia and Montenegro
Timezone Europe/Belgrade (UTC+1.0)
Stats Elevation 335 ft / 102 m (AMSL)
Location 44.818429° 20.309211°
Runways 1
Magnetic Variation 4.672° E

METAR

LYBE 151430Z 14017KT CAVOK 13/05 Q1002 NOSIG

Decode

TAF

TAF LYBE 151100Z 1512/1612 16015KT 9999 SCT040 TX14/1513Z TN05/1612Z TEMPO 1514/1520 5000 RA BECMG 1601/1603 32010KT 4000 -RA BR BKN008 BKN025

Decode

Destination Runways

ID Width Length Bearing (true) Bearing (mag) Surface Threshold Offset Overrun Length
12 148 ft / 45 m 11,138 ft / 3,395 m 122.00° 117.33° Asphalt 1,000 ft / 305 m 0 ft / 0 m
30 148 ft / 45 m 11,138 ft / 3,395 m 302.03° 297.36° Asphalt 1,312 ft / 400 m 0 ft / 0 m

Approach Navaids

Runway Type Ident Frequency Range Bearing (true) Bearing (mag) Slope Elevation
12 Localiser YUB 110.30 MHz 25 nm / 46 km 121.92° 117.25° - 315 ft / 96 m (AMSL)
12 Glidescope YUB 110.30 MHz 25 nm / 46 km 121.92° 117.25° 3.00° 305 ft / 93 m (AMSL)
30 Localiser YBE 109.90 MHz 25 nm / 46 km 301.94° 297.27° - 298 ft / 91 m (AMSL)
30 Glidescope YBE 109.90 MHz 25 nm / 46 km 301.94° 297.27° 3.00° 328 ft / 100 m (AMSL)